sensor_id;sensor_type;location;lat;lon;timestamp;temperature;humidity
36856;DHT22;22788;51.434;6.786;2023-04-29T00:00:45;12.90;99.90
36856;DHT22;22788;51.434;6.786;2023-04-29T00:03:11;12.80;99.90
36856;DHT22;22788;51.434;6.786;2023-04-29T00:05:38;12.80;99.90
36856;DHT22;22788;51.434;6.786;2023-04-29T00:08:04;12.70;99.90
36856;DHT22;22788;51.434;6.786;2023-04-29T00:10:29;12.70;99.90
36856;DHT22;22788;51.434;6.786;2023-04-29T00:12:55;12.70;99.90
36856;DHT22;22788;51.434;6.786;2023-04-29T00:15:21;12.70;99.90
36856;DHT22;22788;51.434;6.786;2023-04-29T00:17:46;12.60;99.90
36856;DHT22;22788;51.434;6.786;2023-04-29T00:20:12;12.60;99.90
36856;DHT22;22788;51.434;6.786;2023-04-29T00:22:39;12.60;99.90
36856;DHT22;22788;51.434;6.786;2023-04-29T00:25:06;12.60;99.90
36856;DHT22;22788;51.434;6.786;2023-04-29T00:27:32;12.70;99.90
36856;DHT22;22788;51.434;6.786;2023-04-29T00:29:58;12.60;99.90
36856;DHT22;22788;51.434;6.786;2023-04-29T00:32:23;12.60;99.90
36856;DHT22;22788;51.434;6.786;2023-04-29T00:34:49;12.60;99.90
36856;DHT22;22788;51.434;6.786;2023-04-29T00:37:15;12.60;99.90
36856;DHT22;22788;51.434;6.786;2023-04-29T00:39:41;12.60;99.90
36856;DHT22;22788;51.434;6.786;2023-04-29T00:42:08;12.70;99.90
36856;DHT22;22788;51.434;6.786;2023-04-29T00:44:34;12.70;99.90
36856;DHT22;22788;51.434;6.786;2023-04-29T00:46:59;12.60;99.90
36856;DHT22;22788;51.434;6.786;2023-04-29T00:49:25;12.60;99.90
36856;DHT22;22788;51.434;6.786;2023-04-29T00:51:51;12.60;99.90
36856;DHT22;22788;51.434;6.786;2023-04-29T00:54:17;12.60;99.90
36856;DHT22;22788;51.434;6.786;2023-04-29T00:56:45;12.60;99.90
36856;DHT22;22788;51.434;6.786;2023-04-29T00:59:10;12.50;99.90
36856;DHT22;22788;51.434;6.786;2023-04-29T01:01:36;12.50;99.90
36856;DHT22;22788;51.434;6.786;2023-04-29T01:04:04;12.50;99.90
36856;DHT22;22788;51.434;6.786;2023-04-29T01:06:36;12.40;99.90
36856;DHT22;22788;51.434;6.786;2023-04-29T01:09:16;12.50;99.90
36856;DHT22;22788;51.434;6.786;2023-04-29T01:11:52;12.50;99.90
36856;DHT22;22788;51.434;6.786;2023-04-29T01:14:17;12.40;99.90
36856;DHT22;22788;51.434;6.786;2023-04-29T01:16:49;12.50;99.90
36856;DHT22;22788;51.434;6.786;2023-04-29T01:19:31;12.50;99.90
36856;DHT22;22788;51.434;6.786;2023-04-29T01:22:01;12.50;99.90
36856;DHT22;22788;51.434;6.786;2023-04-29T01:24:28;12.50;99.90
36856;DHT22;22788;51.434;6.786;2023-04-29T01:26:56;12.50;99.90
36856;DHT22;22788;51.434;6.786;2023-04-29T01:29:30;12.40;99.90
36856;DHT22;22788;51.434;6.786;2023-04-29T01:32:03;12.40;99.90
36856;DHT22;22788;51.434;6.786;2023-04-29T01:34:33;12.40;99.90
36856;DHT22;22788;51.434;6.786;2023-04-29T01:37:06;12.30;99.90
36856;DHT22;22788;51.434;6.786;2023-04-29T01:39:41;12.40;99.90
36856;DHT22;22788;51.434;6.786;2023-04-29T01:42:14;12.30;99.90
36856;DHT22;22788;51.434;6.786;2023-04-29T01:44:42;12.30;99.90
36856;DHT22;22788;51.434;6.786;2023-04-29T01:47:12;12.30;99.90
36856;DHT22;22788;51.434;6.786;2023-04-29T01:49:38;12.20;99.90
36856;DHT22;22788;51.434;6.786;2023-04-29T01:52:03;12.20;99.90
36856;DHT22;22788;51.434;6.786;2023-04-29T01:54:29;12.10;99.90
36856;DHT22;22788;51.434;6.786;2023-04-29T01:56:56;12.10;99.90
36856;DHT22;22788;51.434;6.786;2023-04-29T01:59:22;12.10;99.90
36856;DHT22;22788;51.434;6.786;2023-04-29T02:01:47;12.10;99.90
36856;DHT22;22788;51.434;6.786;2023-04-29T02:04:13;12.10;99.90
36856;DHT22;22788;51.434;6.786;2023-04-29T02:06:38;12.20;99.90
36856;DHT22;22788;51.434;6.786;2023-04-29T02:09:04;12.10;99.90
36856;DHT22;22788;51.434;6.786;2023-04-29T02:11:30;12.10;99.90
36856;DHT22;22788;51.434;6.786;2023-04-29T02:13:57;12.10;99.90
36856;DHT22;22788;51.434;6.786;2023-04-29T02:16:22;12.20;99.90
36856;DHT22;22788;51.434;6.786;2023-04-29T02:18:48;12.10;99.90
36856;DHT22;22788;51.434;6.786;2023-04-29T02:21:13;12.20;99.90
36856;DHT22;22788;51.434;6.786;2023-04-29T02:23:39;12.10;99.90
36856;DHT22;22788;51.434;6.786;2023-04-29T02:26:05;12.00;99.90
36856;DHT22;22788;51.434;6.786;2023-04-29T02:28:30;12.10;99.90
36856;DHT22;22788;51.434;6.786;2023-04-29T02:30:57;12.10;99.90
36856;DHT22;22788;51.434;6.786;2023-04-29T02:33:23;12.00;99.90
36856;DHT22;22788;51.434;6.786;2023-04-29T02:35:48;11.90;99.90
36856;DHT22;22788;51.434;6.786;2023-04-29T02:38:14;12.00;99.90
36856;DHT22;22788;51.434;6.786;2023-04-29T02:40:40;12.00;99.90
36856;DHT22;22788;51.434;6.786;2023-04-29T02:43:06;12.00;99.90
36856;DHT22;22788;51.434;6.786;2023-04-29T02:45:32;12.00;99.90
36856;DHT22;22788;51.434;6.786;2023-04-29T02:47:59;12.00;99.90
36856;DHT22;22788;51.434;6.786;2023-04-29T02:50:24;12.00;99.90
36856;DHT22;22788;51.434;6.786;2023-04-29T02:52:50;12.00;99.90
36856;DHT22;22788;51.434;6.786;2023-04-29T02:55:15;11.90;99.90
36856;DHT22;22788;51.434;6.786;2023-04-29T02:57:41;11.80;99.90
36856;DHT22;22788;51.434;6.786;2023-04-29T03:00:08;11.80;99.90
36856;DHT22;22788;51.434;6.786;2023-04-29T03:02:33;11.80;99.90
36856;DHT22;22788;51.434;6.786;2023-04-29T03:05:01;11.70;99.90
36856;DHT22;22788;51.434;6.786;2023-04-29T03:07:26;11.80;99.90
36856;DHT22;22788;51.434;6.786;2023-04-29T03:09:52;11.70;99.90
36856;DHT22;22788;51.434;6.786;2023-04-29T03:12:17;11.80;99.90
36856;DHT22;22788;51.434;6.786;2023-04-29T03:14:43;11.90;99.90
36856;DHT22;22788;51.434;6.786;2023-04-29T03:17:08;11.90;99.90
36856;DHT22;22788;51.434;6.786;2023-04-29T03:19:34;11.80;99.90
36856;DHT22;22788;51.434;6.786;2023-04-29T03:22:01;11.80;99.90
36856;DHT22;22788;51.434;6.786;2023-04-29T03:24:27;12.00;99.90
36856;DHT22;22788;51.434;6.786;2023-04-29T03:26:52;11.90;99.90
36856;DHT22;22788;51.434;6.786;2023-04-29T03:29:18;11.90;99.90
36856;DHT22;22788;51.434;6.786;2023-04-29T03:31:43;11.90;99.90
36856;DHT22;22788;51.434;6.786;2023-04-29T03:34:09;12.00;99.90
36856;DHT22;22788;51.434;6.786;2023-04-29T03:36:35;12.00;99.90
36856;DHT22;22788;51.434;6.786;2023-04-29T03:39:02;12.00;99.90
36856;DHT22;22788;51.434;6.786;2023-04-29T03:41:27;12.10;99.90
36856;DHT22;22788;51.434;6.786;2023-04-29T03:43:53;12.00;99.90
36856;DHT22;22788;51.434;6.786;2023-04-29T03:46:18;11.90;99.90
36856;DHT22;22788;51.434;6.786;2023-04-29T03:48:44;11.80;99.90
36856;DHT22;22788;51.434;6.786;2023-04-29T03:51:10;11.70;99.90
36856;DHT22;22788;51.434;6.786;2023-04-29T03:53:35;11.70;99.90
36856;DHT22;22788;51.434;6.786;2023-04-29T03:56:03;11.80;99.90
36856;DHT22;22788;51.434;6.786;2023-04-29T03:58:28;11.90;99.90
36856;DHT22;22788;51.434;6.786;2023-04-29T04:00:54;11.80;99.90
36856;DHT22;22788;51.434;6.786;2023-04-29T04:03:20;11.80;99.90
36856;DHT22;22788;51.434;6.786;2023-04-29T04:05:45;11.80;99.90
36856;DHT22;22788;51.434;6.786;2023-04-29T04:08:11;11.80;99.90
36856;DHT22;22788;51.434;6.786;2023-04-29T04:10:37;11.90;99.90
36856;DHT22;22788;51.434;6.786;2023-04-29T04:13:03;11.80;99.90
36856;DHT22;22788;51.434;6.786;2023-04-29T04:15:29;11.80;99.90
36856;DHT22;22788;51.434;6.786;2023-04-29T04:17:55;11.80;99.90
36856;DHT22;22788;51.434;6.786;2023-04-29T04:20:20;11.80;99.90
36856;DHT22;22788;51.434;6.786;2023-04-29T04:22:46;11.80;99.90
36856;DHT22;22788;51.434;6.786;2023-04-29T04:25:11;11.70;99.90
36856;DHT22;22788;51.434;6.786;2023-04-29T04:27:37;11.60;99.90
36856;DHT22;22788;51.434;6.786;2023-04-29T04:30:06;11.70;99.90
36856;DHT22;22788;51.434;6.786;2023-04-29T04:32:31;11.70;99.90
36856;DHT22;22788;51.434;6.786;2023-04-29T04:34:57;11.80;99.90
36856;DHT22;22788;51.434;6.786;2023-04-29T04:37:22;11.70;99.90
36856;DHT22;22788;51.434;6.786;2023-04-29T04:39:48;11.80;99.90
36856;DHT22;22788;51.434;6.786;2023-04-29T04:42:14;11.80;99.90
36856;DHT22;22788;51.434;6.786;2023-04-29T04:44:39;11.80;99.90
36856;DHT22;22788;51.434;6.786;2023-04-29T04:47:06;11.70;99.90
36856;DHT22;22788;51.434;6.786;2023-04-29T04:49:32;11.70;99.90
36856;DHT22;22788;51.434;6.786;2023-04-29T04:51:57;11.80;99.90
36856;DHT22;22788;51.434;6.786;2023-04-29T04:54:23;11.80;99.90
36856;DHT22;22788;51.434;6.786;2023-04-29T04:56:49;11.70;99.90
36856;DHT22;22788;51.434;6.786;2023-04-29T04:59:14;11.70;99.90
36856;DHT22;22788;51.434;6.786;2023-04-29T05:01:40;11.70;99.90
36856;DHT22;22788;51.434;6.786;2023-04-29T05:04:07;11.70;99.90
36856;DHT22;22788;51.434;6.786;2023-04-29T05:06:33;11.70;99.90
36856;DHT22;22788;51.434;6.786;2023-04-29T05:08:58;11.70;99.90
36856;DHT22;22788;51.434;6.786;2023-04-29T05:11:24;11.60;99.90
36856;DHT22;22788;51.434;6.786;2023-04-29T05:13:49;11.60;99.90
36856;DHT22;22788;51.434;6.786;2023-04-29T05:16:15;11.70;99.90
36856;DHT22;22788;51.434;6.786;2023-04-29T05:18:40;11.70;99.90
36856;DHT22;22788;51.434;6.786;2023-04-29T05:21:09;11.70;99.90
36856;DHT22;22788;51.434;6.786;2023-04-29T05:23:35;11.70;99.90
36856;DHT22;22788;51.434;6.786;2023-04-29T05:26:01;11.70;99.90
36856;DHT22;22788;51.434;6.786;2023-04-29T05:28:26;11.70;99.90
36856;DHT22;22788;51.434;6.786;2023-04-29T05:30:52;11.70;99.90
36856;DHT22;22788;51.434;6.786;2023-04-29T05:33:18;11.80;99.90
36856;DHT22;22788;51.434;6.786;2023-04-29T05:35:43;11.80;99.90
36856;DHT22;22788;51.434;6.786;2023-04-29T05:38:11;11.70;99.90
36856;DHT22;22788;51.434;6.786;2023-04-29T05:40:36;11.70;99.90
36856;DHT22;22788;51.434;6.786;2023-04-29T05:43:02;11.70;99.90
36856;DHT22;22788;51.434;6.786;2023-04-29T05:45:27;11.70;99.90
36856;DHT22;22788;51.434;6.786;2023-04-29T05:47:53;11.60;99.90
36856;DHT22;22788;51.434;6.786;2023-04-29T05:50:19;11.60;99.90
36856;DHT22;22788;51.434;6.786;2023-04-29T05:52:44;11.70;99.90
36856;DHT22;22788;51.434;6.786;2023-04-29T05:55:11;11.70;99.90
36856;DHT22;22788;51.434;6.786;2023-04-29T05:57:37;11.70;99.90
36856;DHT22;22788;51.434;6.786;2023-04-29T06:00:03;11.70;99.90
36856;DHT22;22788;51.434;6.786;2023-04-29T06:02:29;11.80;99.90
36856;DHT22;22788;51.434;6.786;2023-04-29T06:04:54;11.80;99.90
36856;DHT22;22788;51.434;6.786;2023-04-29T06:07:20;11.80;99.90
36856;DHT22;22788;51.434;6.786;2023-04-29T06:09:46;11.70;99.90
36856;DHT22;22788;51.434;6.786;2023-04-29T06:12:13;11.70;99.90
36856;DHT22;22788;51.434;6.786;2023-04-29T06:14:38;11.70;99.90
36856;DHT22;22788;51.434;6.786;2023-04-29T06:17:04;11.80;99.90
36856;DHT22;22788;51.434;6.786;2023-04-29T06:19:30;11.80;99.90
36856;DHT22;22788;51.434;6.786;2023-04-29T06:21:55;11.70;99.90
36856;DHT22;22788;51.434;6.786;2023-04-29T06:24:21;11.80;99.90
36856;DHT22;22788;51.434;6.786;2023-04-29T06:26:47;11.70;99.90
36856;DHT22;22788;51.434;6.786;2023-04-29T06:29:13;11.70;99.90
36856;DHT22;22788;51.434;6.786;2023-04-29T06:31:39;11.70;99.90
36856;DHT22;22788;51.434;6.786;2023-04-29T06:34:05;11.70;99.90
36856;DHT22;22788;51.434;6.786;2023-04-29T06:36:30;11.70;99.90
36856;DHT22;22788;51.434;6.786;2023-04-29T06:38:56;11.70;99.90
36856;DHT22;22788;51.434;6.786;2023-04-29T06:41:21;11.70;99.90
36856;DHT22;22788;51.434;6.786;2023-04-29T06:43:47;11.60;99.90
36856;DHT22;22788;51.434;6.786;2023-04-29T06:46:14;11.60;99.90
36856;DHT22;22788;51.434;6.786;2023-04-29T06:48:40;11.70;99.90
36856;DHT22;22788;51.434;6.786;2023-04-29T06:51:05;11.60;99.90
36856;DHT22;22788;51.434;6.786;2023-04-29T06:53:31;11.50;99.90
36856;DHT22;22788;51.434;6.786;2023-04-29T06:55:56;11.60;99.90
36856;DHT22;22788;51.434;6.786;2023-04-29T06:58:22;11.60;99.90
36856;DHT22;22788;51.434;6.786;2023-04-29T07:00:48;11.60;99.90
36856;DHT22;22788;51.434;6.786;2023-04-29T07:03:16;11.60;99.90
36856;DHT22;22788;51.434;6.786;2023-04-29T07:05:42;11.50;99.90
36856;DHT22;22788;51.434;6.786;2023-04-29T07:08:08;11.50;99.90
36856;DHT22;22788;51.434;6.786;2023-04-29T07:10:34;11.50;99.90
36856;DHT22;22788;51.434;6.786;2023-04-29T07:13:00;11.50;99.90
36856;DHT22;22788;51.434;6.786;2023-04-29T07:15:25;11.60;99.90
36856;DHT22;22788;51.434;6.786;2023-04-29T07:17:51;11.60;99.90
36856;DHT22;22788;51.434;6.786;2023-04-29T07:20:18;11.70;99.90
36856;DHT22;22788;51.434;6.786;2023-04-29T07:22:44;11.70;99.90
36856;DHT22;22788;51.434;6.786;2023-04-29T07:25:09;11.70;99.90
36856;DHT22;22788;51.434;6.786;2023-04-29T07:27:35;11.60;99.90
36856;DHT22;22788;51.434;6.786;2023-04-29T07:30:01;11.60;99.90
36856;DHT22;22788;51.434;6.786;2023-04-29T07:32:27;11.60;99.90
36856;DHT22;22788;51.434;6.786;2023-04-29T07:34:53;11.60;99.90
36856;DHT22;22788;51.434;6.786;2023-04-29T07:37:20;11.60;99.90
36856;DHT22;22788;51.434;6.786;2023-04-29T07:39:45;11.50;99.90
36856;DHT22;22788;51.434;6.786;2023-04-29T07:42:11;11.60;99.90
36856;DHT22;22788;51.434;6.786;2023-04-29T07:44:36;11.50;99.90
36856;DHT22;22788;51.434;6.786;2023-04-29T07:47:02;11.50;99.90
36856;DHT22;22788;51.434;6.786;2023-04-29T07:49:28;11.60;99.90
36856;DHT22;22788;51.434;6.786;2023-04-29T07:51:53;11.60;99.90
36856;DHT22;22788;51.434;6.786;2023-04-29T07:54:20;11.60;99.90
36856;DHT22;22788;51.434;6.786;2023-04-29T07:56:46;11.50;99.90
36856;DHT22;22788;51.434;6.786;2023-04-29T07:59:11;11.50;99.90
36856;DHT22;22788;51.434;6.786;2023-04-29T08:01:37;11.40;99.90
36856;DHT22;22788;51.434;6.786;2023-04-29T08:04:04;11.40;99.90
36856;DHT22;22788;51.434;6.786;2023-04-29T08:06:31;11.40;99.90
36856;DHT22;22788;51.434;6.786;2023-04-29T08:08:56;11.40;99.90
36856;DHT22;22788;51.434;6.786;2023-04-29T08:11:23;11.50;99.90
36856;DHT22;22788;51.434;6.786;2023-04-29T08:13:49;11.50;99.90
36856;DHT22;22788;51.434;6.786;2023-04-29T08:16:15;11.40;99.90
36856;DHT22;22788;51.434;6.786;2023-04-29T08:18:40;11.60;99.90
36856;DHT22;22788;51.434;6.786;2023-04-29T08:21:06;11.60;99.90
36856;DHT22;22788;51.434;6.786;2023-04-29T08:23:32;11.60;99.90
36856;DHT22;22788;51.434;6.786;2023-04-29T08:25:57;11.50;99.90
36856;DHT22;22788;51.434;6.786;2023-04-29T08:28:25;11.50;99.90
36856;DHT22;22788;51.434;6.786;2023-04-29T08:30:50;11.60;99.90
36856;DHT22;22788;51.434;6.786;2023-04-29T08:33:16;11.70;99.90
36856;DHT22;22788;51.434;6.786;2023-04-29T08:35:41;11.60;99.90
36856;DHT22;22788;51.434;6.786;2023-04-29T08:38:08;11.70;99.90
36856;DHT22;22788;51.434;6.786;2023-04-29T08:40:34;11.60;99.90
36856;DHT22;22788;51.434;6.786;2023-04-29T08:43:00;11.60;99.90
36856;DHT22;22788;51.434;6.786;2023-04-29T08:45:27;11.60;99.90
36856;DHT22;22788;51.434;6.786;2023-04-29T08:47:54;11.50;99.90
36856;DHT22;22788;51.434;6.786;2023-04-29T08:50:21;11.40;99.90
36856;DHT22;22788;51.434;6.786;2023-04-29T08:52:46;11.50;99.90
36856;DHT22;22788;51.434;6.786;2023-04-29T08:55:14;11.60;99.90
36856;DHT22;22788;51.434;6.786;2023-04-29T08:57:40;11.50;99.90
36856;DHT22;22788;51.434;6.786;2023-04-29T09:00:09;11.50;99.90
36856;DHT22;22788;51.434;6.786;2023-04-29T09:02:42;11.50;99.90
36856;DHT22;22788;51.434;6.786;2023-04-29T09:05:09;11.50;99.90
36856;DHT22;22788;51.434;6.786;2023-04-29T09:07:35;11.60;99.90
36856;DHT22;22788;51.434;6.786;2023-04-29T09:10:04;11.50;99.90
36856;DHT22;22788;51.434;6.786;2023-04-29T09:12:30;11.50;99.90
36856;DHT22;22788;51.434;6.786;2023-04-29T09:14:55;11.50;99.90
36856;DHT22;22788;51.434;6.786;2023-04-29T09:17:39;11.60;99.90
36856;DHT22;22788;51.434;6.786;2023-04-29T09:20:25;11.50;99.90
36856;DHT22;22788;51.434;6.786;2023-04-29T09:22:52;11.60;99.90
36856;DHT22;22788;51.434;6.786;2023-04-29T09:25:18;11.70;99.90
36856;DHT22;22788;51.434;6.786;2023-04-29T09:27:44;11.70;99.90
36856;DHT22;22788;51.434;6.786;2023-04-29T09:30:10;11.70;99.90
36856;DHT22;22788;51.434;6.786;2023-04-29T09:32:35;11.60;99.90
36856;DHT22;22788;51.434;6.786;2023-04-29T09:35:21;11.60;99.90
36856;DHT22;22788;51.434;6.786;2023-04-29T09:37:46;11.60;99.90
36856;DHT22;22788;51.434;6.786;2023-04-29T09:40:26;11.70;99.90
36856;DHT22;22788;51.434;6.786;2023-04-29T09:42:52;11.60;99.90
36856;DHT22;22788;51.434;6.786;2023-04-29T09:45:32;11.60;99.90
36856;DHT22;22788;51.434;6.786;2023-04-29T09:48:01;11.70;99.90
36856;DHT22;22788;51.434;6.786;2023-04-29T09:50:28;11.60;99.90
36856;DHT22;22788;51.434;6.786;2023-04-29T09:52:54;11.70;99.90
36856;DHT22;22788;51.434;6.786;2023-04-29T09:55:19;11.70;99.90
36856;DHT22;22788;51.434;6.786;2023-04-29T09:57:45;11.70;99.90
36856;DHT22;22788;51.434;6.786;2023-04-29T10:00:12;11.80;99.90
36856;DHT22;22788;51.434;6.786;2023-04-29T10:02:41;11.80;99.90
36856;DHT22;22788;51.434;6.786;2023-04-29T10:05:07;11.80;99.90
36856;DHT22;22788;51.434;6.786;2023-04-29T10:07:38;11.80;99.90
36856;DHT22;22788;51.434;6.786;2023-04-29T10:10:05;11.90;99.90
36856;DHT22;22788;51.434;6.786;2023-04-29T10:12:34;11.90;99.90
36856;DHT22;22788;51.434;6.786;2023-04-29T10:15:02;11.90;99.90
36856;DHT22;22788;51.434;6.786;2023-04-29T10:17:35;11.90;99.90
36856;DHT22;22788;51.434;6.786;2023-04-29T10:20:02;11.90;99.90
36856;DHT22;22788;51.434;6.786;2023-04-29T10:22:33;12.00;99.90
36856;DHT22;22788;51.434;6.786;2023-04-29T10:25:02;11.90;99.90
36856;DHT22;22788;51.434;6.786;2023-04-29T10:27:32;12.00;99.90
36856;DHT22;22788;51.434;6.786;2023-04-29T10:30:00;12.00;99.90
36856;DHT22;22788;51.434;6.786;2023-04-29T10:32:27;12.00;99.90
36856;DHT22;22788;51.434;6.786;2023-04-29T10:34:54;12.00;99.90
36856;DHT22;22788;51.434;6.786;2023-04-29T10:37:20;12.00;99.90
36856;DHT22;22788;51.434;6.786;2023-04-29T10:39:49;12.10;99.90
36856;DHT22;22788;51.434;6.786;2023-04-29T10:42:30;12.10;99.90
36856;DHT22;22788;51.434;6.786;2023-04-29T10:45:17;12.00;99.90
36856;DHT22;22788;51.434;6.786;2023-04-29T10:48:07;12.00;99.90
36856;DHT22;22788;51.434;6.786;2023-04-29T10:50:39;12.10;99.90
36856;DHT22;22788;51.434;6.786;2023-04-29T10:53:05;12.20;99.90
36856;DHT22;22788;51.434;6.786;2023-04-29T10:55:32;12.20;99.90
36856;DHT22;22788;51.434;6.786;2023-04-29T10:58:02;12.20;99.90
36856;DHT22;22788;51.434;6.786;2023-04-29T11:00:29;12.30;99.90
36856;DHT22;22788;51.434;6.786;2023-04-29T11:02:55;12.30;99.90
36856;DHT22;22788;51.434;6.786;2023-04-29T11:05:29;12.30;99.90
36856;DHT22;22788;51.434;6.786;2023-04-29T11:08:08;12.40;99.90
36856;DHT22;22788;51.434;6.786;2023-04-29T11:10:35;12.40;99.90
36856;DHT22;22788;51.434;6.786;2023-04-29T11:13:21;12.40;99.90
36856;DHT22;22788;51.434;6.786;2023-04-29T11:15:48;12.50;99.90
36856;DHT22;22788;51.434;6.786;2023-04-29T11:18:15;12.40;99.90
36856;DHT22;22788;51.434;6.786;2023-04-29T11:21:11;12.50;99.90
36856;DHT22;22788;51.434;6.786;2023-04-29T11:23:38;12.60;99.90
36856;DHT22;22788;51.434;6.786;2023-04-29T11:26:04;12.60;99.90
36856;DHT22;22788;51.434;6.786;2023-04-29T11:28:32;12.60;99.90
36856;DHT22;22788;51.434;6.786;2023-04-29T11:30:58;12.70;99.90
36856;DHT22;22788;51.434;6.786;2023-04-29T11:33:24;12.90;99.90
36856;DHT22;22788;51.434;6.786;2023-04-29T11:35:50;12.70;99.90
36856;DHT22;22788;51.434;6.786;2023-04-29T11:38:16;12.70;99.90
36856;DHT22;22788;51.434;6.786;2023-04-29T11:40:42;12.80;99.90
36856;DHT22;22788;51.434;6.786;2023-04-29T11:43:16;12.80;99.90
36856;DHT22;22788;51.434;6.786;2023-04-29T11:45:43;12.90;99.90
36856;DHT22;22788;51.434;6.786;2023-04-29T11:48:15;12.90;99.90
36856;DHT22;22788;51.434;6.786;2023-04-29T11:50:41;13.10;99.90
36856;DHT22;22788;51.434;6.786;2023-04-29T11:53:07;13.00;99.90
36856;DHT22;22788;51.434;6.786;2023-04-29T11:55:33;13.00;99.90
36856;DHT22;22788;51.434;6.786;2023-04-29T11:57:58;13.10;99.90
36856;DHT22;22788;51.434;6.786;2023-04-29T12:00:24;13.10;99.90
36856;DHT22;22788;51.434;6.786;2023-04-29T12:02:51;13.20;99.90
36856;DHT22;22788;51.434;6.786;2023-04-29T12:05:17;13.20;99.90
36856;DHT22;22788;51.434;6.786;2023-04-29T12:07:42;13.20;99.90
36856;DHT22;22788;51.434;6.786;2023-04-29T12:10:08;13.20;99.90
36856;DHT22;22788;51.434;6.786;2023-04-29T12:12:34;13.30;99.90
36856;DHT22;22788;51.434;6.786;2023-04-29T12:15:00;13.40;99.90
36856;DHT22;22788;51.434;6.786;2023-04-29T12:17:26;13.50;99.90
36856;DHT22;22788;51.434;6.786;2023-04-29T12:19:53;13.60;99.90
36856;DHT22;22788;51.434;6.786;2023-04-29T12:22:18;13.50;99.90
36856;DHT22;22788;51.434;6.786;2023-04-29T12:24:44;13.50;99.90
36856;DHT22;22788;51.434;6.786;2023-04-29T12:27:10;13.50;99.90
36856;DHT22;22788;51.434;6.786;2023-04-29T12:29:36;13.50;99.90
36856;DHT22;22788;51.434;6.786;2023-04-29T12:32:02;13.50;99.90
36856;DHT22;22788;51.434;6.786;2023-04-29T12:34:28;13.40;99.90
36856;DHT22;22788;51.434;6.786;2023-04-29T12:36:57;13.40;99.90
36856;DHT22;22788;51.434;6.786;2023-04-29T12:39:23;13.30;99.90
36856;DHT22;22788;51.434;6.786;2023-04-29T12:41:53;13.30;99.90
36856;DHT22;22788;51.434;6.786;2023-04-29T12:44:19;13.30;99.90
36856;DHT22;22788;51.434;6.786;2023-04-29T12:46:45;13.30;99.90
36856;DHT22;22788;51.434;6.786;2023-04-29T12:49:10;13.20;99.90
36856;DHT22;22788;51.434;6.786;2023-04-29T12:51:36;13.30;99.90
36856;DHT22;22788;51.434;6.786;2023-04-29T12:54:04;13.40;99.90
36856;DHT22;22788;51.434;6.786;2023-04-29T12:56:29;13.40;99.90
36856;DHT22;22788;51.434;6.786;2023-04-29T12:58:55;13.40;99.90
36856;DHT22;22788;51.434;6.786;2023-04-29T13:01:21;13.40;99.90
36856;DHT22;22788;51.434;6.786;2023-04-29T13:03:46;13.50;99.90
36856;DHT22;22788;51.434;6.786;2023-04-29T13:06:12;13.50;99.90
36856;DHT22;22788;51.434;6.786;2023-04-29T13:08:38;13.50;99.90
36856;DHT22;22788;51.434;6.786;2023-04-29T13:11:05;13.50;99.90
36856;DHT22;22788;51.434;6.786;2023-04-29T13:13:30;13.60;99.90
36856;DHT22;22788;51.434;6.786;2023-04-29T13:15:56;13.60;99.90
36856;DHT22;22788;51.434;6.786;2023-04-29T13:18:21;13.60;99.90
36856;DHT22;22788;51.434;6.786;2023-04-29T13:20:50;13.60;99.90
36856;DHT22;22788;51.434;6.786;2023-04-29T13:23:15;13.60;99.90
36856;DHT22;22788;51.434;6.786;2023-04-29T13:25:41;13.60;99.90
36856;DHT22;22788;51.434;6.786;2023-04-29T13:28:08;13.60;99.90
36856;DHT22;22788;51.434;6.786;2023-04-29T13:30:36;13.70;99.90
36856;DHT22;22788;51.434;6.786;2023-04-29T13:33:01;13.70;99.90
36856;DHT22;22788;51.434;6.786;2023-04-29T13:35:27;13.70;99.90
36856;DHT22;22788;51.434;6.786;2023-04-29T13:37:52;13.70;99.90
36856;DHT22;22788;51.434;6.786;2023-04-29T13:40:18;13.70;99.90
36856;DHT22;22788;51.434;6.786;2023-04-29T13:42:44;13.80;99.90
36856;DHT22;22788;51.434;6.786;2023-04-29T13:45:11;13.70;99.90
36856;DHT22;22788;51.434;6.786;2023-04-29T13:47:36;13.70;99.90
36856;DHT22;22788;51.434;6.786;2023-04-29T13:50:02;13.70;99.90
36856;DHT22;22788;51.434;6.786;2023-04-29T13:52:28;13.70;99.90
36856;DHT22;22788;51.434;6.786;2023-04-29T13:54:53;13.70;99.90
36856;DHT22;22788;51.434;6.786;2023-04-29T13:57:19;13.80;99.90
36856;DHT22;22788;51.434;6.786;2023-04-29T13:59:45;13.80;99.90
36856;DHT22;22788;51.434;6.786;2023-04-29T14:02:11;13.80;99.90
36856;DHT22;22788;51.434;6.786;2023-04-29T14:04:37;13.80;99.90
36856;DHT22;22788;51.434;6.786;2023-04-29T14:07:03;13.80;99.90
36856;DHT22;22788;51.434;6.786;2023-04-29T14:09:28;13.90;99.90
36856;DHT22;22788;51.434;6.786;2023-04-29T14:11:54;13.90;99.90
36856;DHT22;22788;51.434;6.786;2023-04-29T14:14:19;13.90;99.90
36856;DHT22;22788;51.434;6.786;2023-04-29T14:16:45;14.00;99.90
36856;DHT22;22788;51.434;6.786;2023-04-29T14:19:12;14.00;99.90
36856;DHT22;22788;51.434;6.786;2023-04-29T14:21:37;14.10;99.90
36856;DHT22;22788;51.434;6.786;2023-04-29T14:24:03;14.10;99.90
36856;DHT22;22788;51.434;6.786;2023-04-29T14:26:29;14.10;99.90
36856;DHT22;22788;51.434;6.786;2023-04-29T14:28:55;14.10;99.90
36856;DHT22;22788;51.434;6.786;2023-04-29T14:31:21;14.20;99.90
36856;DHT22;22788;51.434;6.786;2023-04-29T14:33:47;14.10;99.90
36856;DHT22;22788;51.434;6.786;2023-04-29T14:36:14;14.20;99.90
36856;DHT22;22788;51.434;6.786;2023-04-29T14:38:39;14.20;99.90
36856;DHT22;22788;51.434;6.786;2023-04-29T14:41:05;14.20;99.90
36856;DHT22;22788;51.434;6.786;2023-04-29T14:43:31;14.20;99.90
36856;DHT22;22788;51.434;6.786;2023-04-29T14:45:56;14.20;99.90
36856;DHT22;22788;51.434;6.786;2023-04-29T14:48:22;14.20;99.90
36856;DHT22;22788;51.434;6.786;2023-04-29T14:50:48;14.20;99.90
36856;DHT22;22788;51.434;6.786;2023-04-29T14:53:15;14.10;99.90
36856;DHT22;22788;51.434;6.786;2023-04-29T14:55:40;14.20;99.90
36856;DHT22;22788;51.434;6.786;2023-04-29T14:58:06;14.20;99.90
36856;DHT22;22788;51.434;6.786;2023-04-29T15:00:31;14.30;99.90
36856;DHT22;22788;51.434;6.786;2023-04-29T15:02:57;14.20;99.90
36856;DHT22;22788;51.434;6.786;2023-04-29T15:05:23;14.30;99.90
36856;DHT22;22788;51.434;6.786;2023-04-29T15:07:48;14.30;99.90
36856;DHT22;22788;51.434;6.786;2023-04-29T15:10:15;14.30;99.90
36856;DHT22;22788;51.434;6.786;2023-04-29T15:12:41;14.40;99.90
36856;DHT22;22788;51.434;6.786;2023-04-29T15:15:08;14.50;99.90
36856;DHT22;22788;51.434;6.786;2023-04-29T15:17:33;14.40;99.90
36856;DHT22;22788;51.434;6.786;2023-04-29T15:19:59;14.60;99.90
36856;DHT22;22788;51.434;6.786;2023-04-29T15:22:25;14.60;99.90
36856;DHT22;22788;51.434;6.786;2023-04-29T15:24:50;14.60;99.90
36856;DHT22;22788;51.434;6.786;2023-04-29T15:27:17;14.50;99.90